Bardufoss Airport


Codes: ENDU/BDU
Name: Bardufoss Airport
City: Malselv
Country: Norway
Elevation: 252 ft.
Wikipedia:

Photos at Bardufoss Airport


   Photos courtesy of SpottingLog. You can add your own sightings and photos by signing up for a free trial today.



No photos found.

Weather at Bardufoss Airport


Time (UTC)DescriptionTempratureWindCloud coverageVisibilityPressureHumidity
16-Jun-2024 12:00Light Rain22°C2 mph, 20%10000m1010hPa43%
16-Jun-2024 15:00Scattered Clouds21°C2 mph, E45%10000m1010hPa46%
16-Jun-2024 18:00Broken Clouds20°C7 mph, N63%10000m1009hPa51%
16-Jun-2024 21:00Light Rain17°C2 mph, E94%10000m1010hPa69%
17-Jun-2024 00:00Overcast Clouds15°C4 mph, SE95%10000m1010hPa67%
17-Jun-2024 03:00Overcast Clouds16°C4 mph, SE100%10000m1011hPa69%
17-Jun-2024 06:00Light Rain17°C4 mph, SE100%10000m1011hPa59%
17-Jun-2024 09:00Light Rain18°C2 mph, S97%10000m1012hPa55%
17-Jun-2024 12:00Light Rain20°C2 mph, NW66%10000m1012hPa49%
17-Jun-2024 15:00Overcast Clouds20°C2 mph, E85%10000m1012hPa50%
17-Jun-2024 18:00Overcast Clouds19°C2 mph, E91%10000m1011hPa53%
17-Jun-2024 21:00Overcast Clouds16°C2 mph, NE100%10000m1011hPa68%
18-Jun-2024 00:00Overcast Clouds15°C4 mph, E100%10000m1010hPa68%
18-Jun-2024 03:00Overcast Clouds16°C4 mph, E100%10000m1009hPa70%
18-Jun-2024 06:00Overcast Clouds18°C4 mph, E100%10000m1007hPa58%
18-Jun-2024 09:00Overcast Clouds21°C4 mph, E94%10000m1005hPa46%
18-Jun-2024 12:00Overcast Clouds20°C9 mph, SE96%10000m1004hPa50%
18-Jun-2024 15:00Overcast Clouds18°C4 mph, SE99%10000m1003hPa59%
18-Jun-2024 18:00Light Rain18°C2 mph, NE99%10000m1002hPa62%
18-Jun-2024 21:00Light Rain15°C4 mph, W100%10000m1001hPa80%
19-Jun-2024 00:00Overcast Clouds13°C4 mph, W100%10000m1002hPa90%
19-Jun-2024 03:00Overcast Clouds13°C4 mph, W100%10000m1001hPa89%
19-Jun-2024 06:00Light Rain13°C4 mph, NW100%10000m1000hPa83%
19-Jun-2024 09:00Light Rain12°C4 mph, NW100%10000m1000hPa85%
19-Jun-2024 12:00Moderate Rain11°C4 mph, NW100%6193m1001hPa91%
19-Jun-2024 15:00Moderate Rain10°C7 mph, NW100%10000m1002hPa90%
19-Jun-2024 18:00Light Rain8°C4 mph, NW100%10000m1003hPa91%
19-Jun-2024 21:00Light Rain7°C4 mph, NW100%10000m1001hPa89%
20-Jun-2024 00:00Light Rain7°C2 mph, NW100%10000m1000hPa86%
20-Jun-2024 03:00Overcast Clouds7°C2 mph, W100%10000m997hPa81%
20-Jun-2024 06:00Overcast Clouds8°C2 mph, W100%10000m995hPa69%
20-Jun-2024 09:00Overcast Clouds10°C4 mph, W100%10000m994hPa60%
20-Jun-2024 12:00Overcast Clouds12°C4 mph, W100%10000m995hPa49%
20-Jun-2024 15:00Overcast Clouds12°C9 mph, W100%10000m995hPa51%
20-Jun-2024 18:00Light Rain9°C2 mph, W100%10000m997hPa77%
20-Jun-2024 21:00Light Rain8°C0 mph, E100%10000m997hPa79%
21-Jun-2024 00:00Overcast Clouds7°C0 mph, N100%10000m997hPa88%
21-Jun-2024 03:00Broken Clouds8°C2 mph, N54%10000m997hPa83%
21-Jun-2024 06:00Scattered Clouds10°C2 mph, NW43%10000m999hPa67%
21-Jun-2024 09:00Light Rain11°C4 mph, W94%10000m1001hPa67%